Terminal Aerodrome Forecast
Issued by NWS

Home | Current Version | Previous Version | Text Only | Print | Product List | Glossary On
Versions: 1 2 3 4 5 6 7 8 9 10 11 12 13 14 15
000
FTUS41 KPHI 272340
TAFMIV
TAF
KMIV 272340Z 2800/2824 33011KT P6SM BKN080
     FM281100 35013G23KT P6SM SCT050
     FM282200 34008KT P6SM SKC=

USA.gov is the U.S. government's official web portal to all federal, state and local government web resources and services.